createdAt,value
2019-02-17T00:02:03.889Z,36.97
2019-02-17T00:04:32.304Z,36.17
2019-02-17T00:07:00.691Z,36.17
2019-02-17T00:09:32.108Z,36.93
2019-02-17T00:12:00.487Z,40.27
2019-02-17T00:14:28.836Z,37.80
2019-02-17T00:16:57.191Z,35.70
2019-02-17T00:19:25.643Z,33.27
2019-02-17T00:21:53.995Z,39.00
2019-02-17T00:24:22.380Z,37.70
2019-02-17T00:26:50.802Z,47.10
2019-02-17T00:29:19.258Z,46.07
2019-02-17T00:31:47.615Z,45.27
2019-02-17T00:34:16.065Z,38.77
2019-02-17T00:36:44.412Z,43.37
2019-02-17T00:39:12.792Z,42.27
2019-02-17T00:41:41.148Z,41.90
2019-02-17T00:44:09.949Z,38.93
2019-02-17T00:46:38.577Z,40.23
2019-02-17T00:49:06.938Z,38.10
2019-02-17T00:51:35.816Z,38.47
2019-02-17T00:54:04.198Z,38.13
2019-02-17T00:56:32.556Z,40.13
2019-02-17T00:59:09.823Z,39.60
2019-02-17T01:01:31.026Z,39.53
2019-02-17T01:03:59.414Z,39.33
2019-02-17T01:06:27.767Z,40.00
2019-02-17T01:08:56.153Z,39.70
2019-02-17T01:11:24.501Z,44.83
2019-02-17T01:13:52.895Z,50.47
2019-02-17T01:16:21.252Z,50.83
2019-02-17T01:18:49.634Z,56.40
2019-02-17T01:21:17.984Z,47.57
2019-02-17T01:23:46.367Z,45.40
2019-02-17T01:26:14.715Z,49.97
2019-02-17T01:28:43.102Z,40.53
2019-02-17T01:31:11.463Z,40.03
2019-02-17T01:33:39.854Z,48.70
2019-02-17T01:36:08.208Z,37.83
2019-02-17T01:38:36.607Z,42.77
2019-02-17T01:41:05.025Z,45.90
2019-02-17T01:43:33.383Z,42.30
2019-02-17T01:46:01.840Z,44.10
2019-02-17T01:48:30.198Z,43.77
2019-02-17T01:50:58.585Z,40.27
2019-02-17T01:53:26.941Z,40.27
2019-02-17T01:55:55.328Z,43.27
2019-02-17T01:58:23.691Z,40.87
2019-02-17T02:00:52.073Z,42.23
2019-02-17T02:03:20.439Z,39.73
2019-02-17T02:05:48.891Z,44.47
2019-02-17T02:08:17.240Z,43.50
2019-02-17T02:10:45.635Z,42.33
2019-02-17T02:13:14.177Z,40.17
2019-02-17T02:15:42.567Z,41.37
2019-02-17T02:18:10.920Z,40.67
2019-02-17T02:20:39.379Z,44.77
2019-02-17T02:23:07.734Z,42.47
2019-02-17T02:25:36.121Z,40.77
2019-02-17T02:28:04.479Z,39.70
2019-02-17T02:30:32.870Z,39.07
2019-02-17T02:33:01.232Z,42.60
2019-02-17T02:35:29.678Z,38.60
2019-02-17T02:37:58.030Z,39.87
2019-02-17T02:40:26.411Z,39.20
2019-02-17T02:42:54.774Z,37.20
2019-02-17T02:45:23.124Z,43.53
2019-02-17T02:47:51.512Z,47.13
2019-02-17T02:50:19.873Z,38.17
2019-02-17T02:52:48.260Z,39.27
2019-02-17T02:55:16.685Z,38.13
2019-02-17T02:57:45.086Z,39.47
2019-02-17T03:00:14.072Z,41.43
2019-02-17T03:02:42.460Z,42.63
2019-02-17T03:05:10.891Z,42.03
2019-02-17T03:07:39.349Z,43.40
2019-02-17T03:10:09.146Z,40.23
2019-02-17T03:12:37.540Z,52.70
2019-02-17T03:15:07.935Z,34.33
2019-02-17T03:17:36.327Z,41.30
2019-02-17T03:20:07.124Z,33.57
2019-02-17T03:22:35.586Z,40.60
2019-02-17T03:25:04.774Z,48.03
2019-02-17T03:27:33.161Z,44.20
2019-02-17T03:30:04.987Z,37.83
2019-02-17T03:32:31.632Z,40.67
2019-02-17T03:34:59.994Z,40.93
2019-02-17T03:37:28.750Z,38.80
2019-02-17T03:39:57.113Z,38.10
2019-02-17T03:42:25.570Z,37.67
2019-02-17T03:44:53.928Z,41.03
2019-02-17T03:47:22.313Z,37.53
2019-02-17T03:49:50.670Z,38.70
2019-02-17T03:52:19.074Z,37.57
2019-02-17T03:54:47.517Z,39.13
2019-02-17T03:57:15.880Z,34.03
2019-02-17T03:59:44.242Z,35.83
2019-02-17T04:02:12.662Z,37.70
2019-02-17T04:04:41.333Z,37.43
2019-02-17T04:07:09.751Z,38.70
2019-02-17T04:09:38.236Z,44.17
2019-02-17T04:12:06.595Z,44.43
2019-02-17T04:14:35.054Z,47.07
2019-02-17T04:17:03.519Z,42.73
2019-02-17T04:19:31.891Z,37.93
2019-02-17T04:22:00.319Z,39.43
2019-02-17T04:24:28.848Z,43.77
2019-02-17T04:26:57.209Z,43.00
2019-02-17T04:29:25.598Z,39.67
2019-02-17T04:31:53.952Z,37.23
2019-02-17T04:34:22.342Z,39.27
2019-02-17T04:36:50.703Z,38.93
2019-02-17T04:39:19.090Z,41.17
2019-02-17T04:41:47.445Z,44.77
2019-02-17T04:44:15.830Z,38.20
2019-02-17T04:46:44.189Z,41.20
2019-02-17T04:49:12.578Z,37.13
2019-02-17T04:51:40.939Z,38.67
2019-02-17T04:54:09.329Z,37.87
2019-02-17T04:56:37.680Z,37.77
2019-02-17T04:59:06.072Z,42.97
2019-02-17T05:01:34.430Z,43.50
2019-02-17T05:04:02.796Z,36.23
2019-02-17T05:06:31.169Z,36.50
2019-02-17T05:08:59.527Z,40.03
2019-02-17T05:11:27.914Z,39.13
2019-02-17T05:13:56.276Z,45.83
2019-02-17T05:16:24.663Z,44.67
2019-02-17T05:18:53.092Z,36.50
2019-02-17T05:21:21.479Z,44.73
2019-02-17T05:23:49.843Z,34.30
2019-02-17T05:26:18.232Z,39.57
2019-02-17T05:28:46.588Z,37.33
2019-02-17T05:31:14.976Z,36.53
2019-02-17T05:33:43.329Z,35.13
2019-02-17T05:36:11.714Z,39.13
2019-02-17T05:38:40.068Z,38.93
2019-02-17T05:41:08.459Z,37.17
2019-02-17T05:43:36.826Z,41.93
2019-02-17T05:46:05.815Z,42.63
2019-02-17T05:48:34.623Z,36.13
2019-02-17T05:51:03.009Z,39.33
2019-02-17T05:53:31.373Z,33.37
2019-02-17T05:55:59.764Z,35.57
2019-02-17T05:58:28.112Z,39.07
2019-02-17T06:01:03.999Z,44.00
2019-02-17T06:03:26.587Z,34.47
2019-02-17T06:05:54.979Z,38.67
2019-02-17T06:08:23.334Z,41.17
2019-02-17T06:10:51.722Z,37.53
2019-02-17T06:13:20.077Z,34.60
2019-02-17T06:15:48.469Z,39.77
2019-02-17T06:18:16.830Z,37.17
2019-02-17T06:20:45.373Z,40.60
2019-02-17T06:23:13.729Z,41.93
2019-02-17T06:25:42.195Z,38.67
2019-02-17T06:28:10.551Z,45.53
2019-02-17T06:30:38.941Z,37.47
2019-02-17T06:33:07.296Z,36.03
2019-02-17T06:35:35.679Z,38.50
2019-02-17T06:38:04.037Z,41.00
2019-02-17T06:40:32.429Z,42.63
2019-02-17T06:43:00.788Z,41.03
2019-02-17T06:45:29.142Z,39.40
2019-02-17T06:47:57.536Z,40.77
2019-02-17T06:50:25.891Z,36.90
2019-02-17T06:52:54.282Z,39.43
2019-02-17T06:55:24.282Z,37.17
2019-02-17T06:57:52.682Z,37.87
2019-02-17T07:00:25.545Z,34.67
2019-02-17T07:02:53.931Z,40.07
2019-02-17T07:05:26.917Z,38.17
2019-02-17T07:07:55.294Z,37.07
2019-02-17T07:10:23.649Z,37.03
2019-02-17T07:12:52.037Z,37.73
2019-02-17T07:15:20.463Z,36.77
2019-02-17T07:17:48.846Z,41.13
2019-02-17T07:20:17.209Z,113.00
2019-02-17T07:22:46.012Z,43.50
2019-02-17T07:25:16.927Z,38.77
2019-02-17T07:27:45.696Z,36.57
2019-02-17T07:30:16.513Z,36.17
2019-02-17T07:32:45.781Z,37.53
2019-02-17T07:35:15.485Z,37.80
2019-02-17T07:37:44.358Z,45.10
2019-02-17T07:40:14.680Z,50.53
2019-02-17T07:42:44.168Z,39.97
2019-02-17T07:45:13.219Z,38.03
2019-02-17T07:47:42.344Z,37.10
2019-02-17T07:50:11.910Z,39.67
2019-02-17T07:52:40.846Z,38.53
2019-02-17T07:55:12.832Z,41.30
2019-02-17T07:57:41.826Z,32.50
2019-02-17T08:00:12.355Z,40.83
2019-02-17T08:02:42.118Z,35.90
2019-02-17T08:05:12.886Z,39.10
2019-02-17T08:07:41.555Z,35.73
2019-02-17T08:10:10.718Z,41.07
2019-02-17T08:12:39.131Z,37.93
2019-02-17T08:15:11.258Z,44.97
2019-02-17T08:17:39.917Z,43.67
2019-02-17T08:20:10.611Z,44.90
2019-02-17T08:22:39.049Z,38.93
2019-02-17T08:25:08.873Z,73.00
2019-02-17T08:27:37.324Z,37.90
2019-02-17T08:30:08.889Z,35.37
2019-02-17T08:32:38.329Z,39.67
2019-02-17T08:35:07.639Z,35.90
2019-02-17T08:37:36.053Z,34.97
2019-02-17T08:40:07.365Z,43.23
2019-02-17T08:42:35.834Z,36.03
2019-02-17T08:45:05.265Z,37.83
2019-02-17T08:47:33.646Z,37.40
2019-02-17T08:50:02.193Z,36.97
2019-02-17T08:52:30.570Z,33.33
2019-02-17T08:54:59.032Z,34.23
2019-02-17T08:57:27.440Z,34.07
2019-02-17T08:59:55.904Z,35.53
2019-02-17T09:02:24.272Z,31.23
2019-02-17T09:04:52.690Z,33.37
2019-02-17T09:07:21.050Z,32.20
2019-02-17T09:09:49.467Z,35.97
2019-02-17T09:12:17.939Z,36.40
2019-02-17T09:14:46.426Z,39.47
2019-02-17T09:17:14.961Z,34.47
2019-02-17T09:19:43.492Z,36.13
2019-02-17T09:22:11.999Z,35.80
2019-02-17T09:24:40.380Z,31.63
2019-02-17T09:27:09.354Z,34.40
2019-02-17T09:29:37.866Z,31.60
2019-02-17T09:32:15.700Z,37.27
2019-02-17T09:34:36.384Z,37.83
2019-02-17T09:37:05.069Z,32.47
2019-02-17T09:39:33.413Z,31.60
2019-02-17T09:42:01.925Z,29.63
2019-02-17T09:44:30.428Z,34.73
2019-02-17T09:47:01.073Z,32.43
2019-02-17T09:49:29.909Z,31.97
2019-02-17T09:51:58.556Z,35.07
2019-02-17T09:54:26.966Z,33.20
2019-02-17T09:56:56.120Z,29.43
2019-02-17T09:59:24.568Z,29.27
2019-02-17T10:01:53.126Z,23.43
2019-02-17T10:04:21.601Z,24.13
2019-02-17T10:06:50.094Z,22.73
2019-02-17T10:09:18.541Z,22.00
2019-02-17T10:11:46.938Z,22.13
2019-02-17T10:14:15.387Z,23.63
2019-02-17T10:16:43.966Z,23.80
2019-02-17T10:19:12.567Z,21.53
2019-02-17T10:21:41.114Z,23.50
2019-02-17T10:24:09.578Z,18.60
2019-02-17T10:26:38.043Z,18.03
2019-02-17T10:29:06.524Z,20.57
2019-02-17T10:31:35.011Z,18.47
2019-02-17T10:34:03.498Z,17.83
2019-02-17T10:36:32.012Z,16.13
2019-02-17T10:39:00.419Z,20.43
2019-02-17T10:41:28.777Z,19.03
2019-02-17T10:43:57.208Z,18.40
2019-02-17T10:46:25.563Z,20.80
2019-02-17T10:48:53.984Z,21.43
2019-02-17T10:51:22.494Z,18.03
2019-02-17T10:53:50.980Z,20.17
2019-02-17T10:56:19.508Z,18.93
2019-02-17T10:58:47.995Z,16.03
2019-02-17T11:01:16.443Z,18.73
2019-02-17T11:03:56.863Z,19.20
2019-02-17T11:06:25.316Z,17.37
2019-02-17T11:08:53.720Z,17.03
2019-02-17T11:11:22.169Z,16.37
2019-02-17T11:13:50.670Z,17.10
2019-02-17T11:16:19.101Z,15.03
2019-02-17T11:18:47.582Z,16.23
2019-02-17T11:21:16.002Z,19.47
2019-02-17T11:23:44.419Z,17.53
2019-02-17T11:26:12.859Z,15.13
2019-02-17T11:28:41.262Z,16.23
2019-02-17T11:31:09.701Z,14.50
2019-02-17T11:33:38.103Z,15.40
2019-02-17T11:36:06.492Z,13.03
2019-02-17T11:38:34.882Z,15.40
2019-02-17T11:41:03.270Z,14.23
2019-02-17T11:43:31.733Z,14.30
2019-02-17T11:46:00.100Z,13.43
2019-02-17T11:48:28.507Z,14.77
2019-02-17T11:50:56.880Z,15.30
2019-02-17T11:53:25.329Z,14.53
2019-02-17T11:55:53.754Z,14.47
2019-02-17T11:58:22.200Z,14.17
2019-02-17T12:00:50.687Z,15.63
2019-02-17T12:03:19.202Z,12.83
2019-02-17T12:05:47.600Z,11.93
2019-02-17T12:08:16.133Z,12.30
2019-02-17T12:10:44.524Z,15.47
2019-02-17T12:13:12.961Z,12.80
2019-02-17T12:15:41.442Z,14.23
2019-02-17T12:18:09.893Z,12.37
2019-02-17T12:20:46.294Z,12.33
2019-02-17T12:23:18.938Z,12.43
2019-02-17T12:25:54.820Z,13.63
2019-02-17T12:28:27.270Z,12.10
2019-02-17T12:30:55.739Z,13.87
2019-02-17T12:33:24.095Z,12.50
2019-02-17T12:35:52.509Z,11.80
2019-02-17T12:38:20.850Z,10.50
2019-02-17T12:40:49.308Z,12.83
2019-02-17T12:43:17.676Z,8.53
2019-02-17T12:45:46.124Z,9.03
2019-02-17T12:48:14.487Z,10.57
2019-02-17T12:50:42.964Z,9.50
2019-02-17T12:53:11.380Z,9.10
2019-02-17T12:55:39.839Z,9.83
2019-02-17T12:58:08.276Z,8.60
2019-02-17T13:00:36.797Z,10.43
2019-02-17T13:03:05.825Z,8.03
2019-02-17T13:05:34.219Z,8.50
2019-02-17T13:08:02.651Z,11.50
2019-02-17T13:10:31.126Z,11.70
2019-02-17T13:12:59.559Z,7.83
2019-02-17T13:15:28.037Z,8.17
2019-02-17T13:17:56.420Z,7.93
2019-02-17T13:20:24.808Z,7.93
2019-02-17T13:22:53.162Z,8.60
2019-02-17T13:25:21.634Z,8.23
2019-02-17T13:27:50.071Z,10.17
2019-02-17T13:30:23.583Z,7.03
2019-02-17T13:32:51.975Z,6.90
2019-02-17T13:35:20.461Z,6.50
2019-02-17T13:37:48.934Z,7.40
2019-02-17T13:40:17.368Z,7.13
2019-02-17T13:42:45.831Z,6.17
2019-02-17T13:45:15.347Z,5.67
2019-02-17T13:47:43.820Z,8.17
2019-02-17T13:50:14.377Z,5.60
2019-02-17T13:52:42.771Z,5.77
2019-02-17T13:55:11.326Z,7.10
2019-02-17T13:57:39.858Z,5.53
2019-02-17T14:00:14.438Z,5.83
2019-02-17T14:02:42.903Z,5.63
2019-02-17T14:05:11.322Z,5.53
2019-02-17T14:07:39.796Z,6.07
2019-02-17T14:10:15.536Z,7.53
2019-02-17T14:12:44.120Z,4.90
2019-02-17T14:15:20.191Z,5.40
2019-02-17T14:17:48.666Z,5.40
2019-02-17T14:20:17.095Z,5.47
2019-02-17T14:22:45.550Z,6.07
2019-02-17T14:25:13.984Z,5.13
2019-02-17T14:27:42.449Z,6.03
2019-02-17T14:30:16.604Z,6.17
2019-02-17T14:32:45.074Z,5.83
2019-02-17T14:35:13.948Z,5.97
2019-02-17T14:37:42.479Z,6.13
2019-02-17T14:40:14.150Z,6.73
2019-02-17T14:42:42.602Z,5.57
2019-02-17T14:45:12.703Z,6.00
2019-02-17T14:47:41.164Z,6.03
2019-02-17T14:50:09.643Z,5.43
2019-02-17T14:52:38.106Z,5.53
2019-02-17T14:55:11.139Z,5.20
2019-02-17T14:57:39.592Z,5.57
2019-02-17T15:00:11.407Z,5.47
2019-02-17T15:02:39.790Z,5.30
2019-02-17T15:05:09.697Z,5.33
2019-02-17T15:07:38.198Z,6.90
2019-02-17T15:10:14.337Z,5.30
2019-02-17T15:12:44.246Z,5.30
2019-02-17T15:15:15.165Z,6.13
2019-02-17T15:17:43.592Z,6.07
2019-02-17T15:20:25.141Z,5.70
2019-02-17T15:22:53.648Z,5.33
2019-02-17T15:25:22.406Z,6.60
2019-02-17T15:27:50.830Z,5.10
2019-02-17T15:30:19.359Z,7.10
2019-02-17T15:32:48.120Z,4.80
2019-02-17T15:35:16.543Z,5.83
2019-02-17T15:37:44.982Z,5.20
2019-02-17T15:40:15.180Z,4.73
2019-02-17T15:42:43.830Z,4.67
2019-02-17T15:45:13.356Z,4.50
2019-02-17T15:47:41.782Z,5.83
2019-02-17T15:50:11.819Z,5.10
2019-02-17T15:52:40.246Z,4.83
2019-02-17T15:55:13.000Z,5.30
2019-02-17T15:57:41.988Z,5.50
2019-02-17T16:00:15.403Z,5.63
2019-02-17T16:02:43.826Z,4.77
2019-02-17T16:05:12.541Z,5.87
2019-02-17T16:07:41.427Z,7.77
2019-02-17T16:10:11.667Z,8.97
2019-02-17T16:12:40.082Z,5.43
2019-02-17T16:15:14.657Z,6.93
2019-02-17T16:17:43.313Z,7.23
2019-02-17T16:20:13.424Z,8.90
2019-02-17T16:22:41.849Z,6.30
2019-02-17T16:25:11.091Z,5.83
2019-02-17T16:27:39.585Z,5.30
2019-02-17T16:30:16.100Z,4.27
2019-02-17T16:32:44.518Z,5.87
2019-02-17T16:35:13.093Z,3.93
2019-02-17T16:37:41.641Z,4.50
2019-02-17T16:40:12.935Z,3.87
2019-02-17T16:42:43.464Z,4.50
2019-02-17T16:45:16.238Z,5.03
2019-02-17T16:47:45.009Z,5.10
2019-02-17T16:50:21.528Z,6.17
2019-02-17T16:52:49.943Z,6.17
2019-02-17T16:55:18.419Z,6.10
2019-02-17T16:57:46.765Z,5.87
2019-02-17T17:00:18.996Z,6.73
2019-02-17T17:02:47.982Z,7.50
2019-02-17T17:05:16.662Z,7.53
2019-02-17T17:07:45.086Z,8.60
2019-02-17T17:10:14.080Z,8.63
2019-02-17T17:12:42.588Z,8.53
2019-02-17T17:15:11.562Z,10.30
2019-02-17T17:17:40.100Z,11.70
2019-02-17T17:20:10.785Z,10.07
2019-02-17T17:22:39.737Z,8.97
2019-02-17T17:25:10.002Z,11.37
2019-02-17T17:27:38.673Z,13.30
2019-02-17T17:30:15.200Z,13.13
2019-02-17T17:32:44.214Z,14.63
2019-02-17T17:35:12.701Z,13.27
2019-02-17T17:37:41.158Z,12.30
2019-02-17T17:40:17.209Z,9.03
2019-02-17T17:42:45.737Z,11.47
2019-02-17T17:45:22.797Z,12.07
2019-02-17T17:47:51.334Z,13.93
2019-02-17T17:50:19.761Z,17.80
2019-02-17T17:52:48.156Z,17.10
2019-02-17T17:55:16.522Z,14.00
2019-02-17T17:57:45.017Z,11.43
2019-02-17T18:00:19.401Z,17.53
2019-02-17T18:02:48.040Z,14.30
2019-02-17T18:05:16.569Z,20.80
2019-02-17T18:07:45.344Z,25.30
2019-02-17T18:10:16.307Z,19.43
2019-02-17T18:12:45.656Z,22.63
2019-02-17T18:15:17.320Z,22.03
2019-02-17T18:17:53.799Z,15.67
2019-02-17T18:20:16.487Z,17.17
2019-02-17T18:22:45.105Z,24.20
2019-02-17T18:25:15.142Z,19.77
2019-02-17T18:27:43.757Z,14.70
2019-02-17T18:30:19.441Z,15.87
2019-02-17T18:32:48.043Z,16.63
2019-02-17T18:35:20.344Z,14.23
2019-02-17T18:37:46.926Z,17.93
2019-02-17T18:40:21.877Z,19.47
2019-02-17T18:42:50.323Z,18.40
2019-02-17T18:45:19.227Z,18.87
2019-02-17T18:47:47.686Z,16.60
2019-02-17T18:50:17.187Z,17.17
2019-02-17T18:52:45.643Z,16.57
2019-02-17T18:55:14.564Z,17.73
2019-02-17T18:57:49.991Z,25.93
2019-02-17T19:00:25.012Z,23.17
2019-02-17T19:02:53.609Z,19.57
2019-02-17T19:05:31.624Z,21.80
2019-02-17T19:07:52.305Z,17.73
2019-02-17T19:10:20.735Z,24.80
2019-02-17T19:12:49.201Z,25.17
2019-02-17T19:15:19.577Z,23.80
2019-02-17T19:17:49.455Z,24.43
2019-02-17T19:20:26.772Z,74.27
2019-02-17T19:22:55.233Z,26.03
2019-02-17T19:25:23.998Z,16.37
2019-02-17T19:27:52.518Z,19.27
2019-02-17T19:30:20.945Z,20.77
2019-02-17T19:32:51.462Z,18.07
2019-02-17T19:35:19.983Z,15.63
2019-02-17T19:37:48.494Z,16.33
2019-02-17T19:40:16.914Z,11.57
2019-02-17T19:42:45.277Z,12.23
2019-02-17T19:45:18.529Z,11.73
2019-02-17T19:47:47.495Z,12.77
2019-02-17T19:50:16.623Z,12.43
2019-02-17T19:52:45.305Z,20.47
2019-02-17T19:55:14.510Z,21.20
2019-02-17T19:57:43.715Z,20.67
2019-02-17T20:00:17.369Z,10.53
2019-02-17T20:02:47.663Z,15.27
2019-02-17T20:05:19.459Z,18.77
2019-02-17T20:07:47.959Z,22.10
2019-02-17T20:10:16.778Z,19.53
2019-02-17T20:12:45.199Z,20.47
2019-02-17T20:15:13.674Z,16.60
2019-02-17T20:17:43.621Z,18.53
2019-02-17T20:20:12.423Z,15.83
2019-02-17T20:22:40.789Z,19.67
2019-02-17T20:25:10.963Z,16.00
2019-02-17T20:27:39.526Z,13.23
2019-02-17T20:30:10.544Z,13.93
2019-02-17T20:32:39.180Z,19.97
2019-02-17T20:35:11.283Z,15.87
2019-02-17T20:37:39.642Z,15.27
2019-02-17T20:40:13.106Z,15.30
2019-02-17T20:42:41.456Z,10.10
2019-02-17T20:45:11.708Z,10.13
2019-02-17T20:47:40.558Z,12.17
2019-02-17T20:50:16.563Z,11.07
2019-02-17T20:52:45.390Z,22.10
2019-02-17T20:55:14.255Z,18.53
2019-02-17T20:57:43.198Z,24.70
2019-02-17T21:00:16.799Z,20.97
2019-02-17T21:02:45.168Z,18.80
2019-02-17T21:05:14.121Z,21.87
2019-02-17T21:07:43.199Z,23.73
2019-02-17T21:10:14.187Z,19.40
2019-02-17T21:12:42.761Z,21.97
2019-02-17T21:15:17.316Z,20.67
2019-02-17T21:17:45.741Z,25.30
2019-02-17T21:20:15.440Z,21.70
2019-02-17T21:22:43.875Z,20.77
2019-02-17T21:25:13.499Z,25.77
2019-02-17T21:27:41.919Z,27.13
2019-02-17T21:30:13.134Z,33.43
2019-02-17T21:32:41.557Z,40.77
2019-02-17T21:35:12.589Z,30.50
2019-02-17T21:37:40.951Z,26.37
2019-02-17T21:40:11.708Z,23.87
2019-02-17T21:42:40.405Z,22.73
2019-02-17T21:45:14.315Z,29.23
2019-02-17T21:47:43.067Z,27.80
2019-02-17T21:50:15.272Z,25.93
2019-02-17T21:52:43.828Z,27.10
2019-02-17T21:55:15.901Z,23.77
2019-02-17T21:57:44.837Z,22.13
2019-02-17T22:00:20.136Z,15.13
2019-02-17T22:02:49.233Z,16.43
2019-02-17T22:05:18.855Z,20.87
2019-02-17T22:07:47.543Z,19.77
2019-02-17T22:10:17.632Z,19.93
2019-02-17T22:12:46.642Z,17.53
2019-02-17T22:15:23.489Z,21.13
2019-02-17T22:17:52.031Z,18.70
2019-02-17T22:20:20.483Z,18.37
2019-02-17T22:22:49.112Z,19.07
2019-02-17T22:25:18.046Z,16.90
2019-02-17T22:27:46.632Z,16.63
2019-02-17T22:30:16.585Z,16.43
2019-02-17T22:32:45.571Z,18.37
2019-02-17T22:35:14.291Z,17.13
2019-02-17T22:37:42.925Z,16.83
2019-02-17T22:40:15.784Z,18.73
2019-02-17T22:42:44.439Z,16.80
2019-02-17T22:45:13.673Z,15.63
2019-02-17T22:47:42.265Z,16.50
2019-02-17T22:50:15.062Z,13.40
2019-02-17T22:52:45.685Z,15.17
2019-02-17T22:55:14.885Z,16.80
2019-02-17T22:57:43.364Z,14.37
2019-02-17T23:00:24.878Z,17.10
2019-02-17T23:02:53.511Z,18.10
2019-02-17T23:05:21.976Z,15.40
2019-02-17T23:07:50.554Z,16.60
2019-02-17T23:10:19.064Z,18.70
2019-02-17T23:12:47.530Z,19.83
2019-02-17T23:15:16.029Z,17.03
2019-02-17T23:17:44.425Z,19.27
2019-02-17T23:20:12.928Z,18.90
2019-02-17T23:22:41.393Z,17.23
2019-02-17T23:25:10.220Z,16.30
2019-02-17T23:27:38.678Z,18.33
2019-02-17T23:30:09.202Z,20.00
2019-02-17T23:32:37.579Z,20.13
2019-02-17T23:35:06.626Z,18.60
2019-02-17T23:37:35.136Z,18.93
2019-02-17T23:40:05.294Z,18.93
2019-02-17T23:42:33.760Z,18.10
2019-02-17T23:45:02.123Z,21.80
2019-02-17T23:47:30.698Z,21.10
2019-02-17T23:49:59.076Z,18.43
2019-02-17T23:52:27.526Z,18.57
2019-02-17T23:54:55.952Z,19.70
2019-02-17T23:57:24.353Z,22.23
2019-02-17T23:59:52.703Z,22.30
